createdAt,value
2023-05-20T07:54:30.924Z,95304.31
2023-05-20T07:56:58.410Z,95299.66
2023-05-20T07:59:25.685Z,95291.50
2023-05-20T08:01:53.189Z,95287.38
2023-05-20T08:04:21.430Z,95292.19
2023-05-20T08:06:48.667Z,95291.72
2023-05-20T08:09:22.822Z,95290.81
2023-05-20T08:11:54.822Z,95286.72
2023-05-20T08:14:22.101Z,95274.63
2023-05-20T08:16:54.870Z,95282.31
2023-05-20T08:19:22.611Z,95275.84
2023-05-20T08:21:50.124Z,95283.88
2023-05-20T08:24:17.857Z,95280.69
2023-05-20T08:26:45.319Z,95285.09
2023-05-20T08:29:12.513Z,95280.16
2023-05-20T08:31:39.604Z,95277.63
2023-05-20T08:34:07.271Z,95275.88
2023-05-20T08:36:35.032Z,95276.09
2023-05-20T08:39:02.170Z,95278.44
2023-05-20T08:41:30.189Z,95281.41
2023-05-20T08:44:01.323Z,95282.38
2023-05-20T08:46:29.218Z,95282.09
2023-05-20T08:48:57.359Z,95285.31
2023-05-20T08:51:28.255Z,95284.56
2023-05-20T08:53:55.697Z,95283.22
2023-05-20T08:56:23.847Z,95275.84
2023-05-20T08:58:51.406Z,95274.56
2023-05-20T09:01:18.516Z,95284.53
2023-05-20T09:03:45.745Z,95273.16
2023-05-20T09:06:20.422Z,95261.28
2023-05-20T09:08:51.438Z,95258.03
2023-05-20T09:11:18.630Z,95254.66
2023-05-20T09:13:45.718Z,95252.31
2023-05-20T09:16:13.840Z,95254.03
2023-05-20T09:18:41.826Z,95254.59
2023-05-20T09:21:10.449Z,95248.88
2023-05-20T09:23:38.733Z,95240.63
2023-05-20T09:26:05.962Z,95242.94
2023-05-20T09:28:33.115Z,95252.59
2023-05-20T09:31:01.084Z,95248.06
2023-05-20T09:33:30.440Z,95251.63
2023-05-20T09:36:10.602Z,95244.63
2023-05-20T09:38:39.903Z,95245.00
2023-05-20T09:41:15.589Z,95233.03
2023-05-20T09:43:43.110Z,95240.38
2023-05-20T09:46:11.207Z,95244.28
2023-05-20T09:48:38.504Z,95232.09
2023-05-20T09:51:07.189Z,95230.59
2023-05-20T09:53:34.512Z,95231.50
2023-05-20T09:56:01.765Z,95226.59
2023-05-20T09:58:29.851Z,95215.78
2023-05-20T10:00:57.114Z,95208.16
2023-05-20T10:03:29.538Z,95210.28
2023-05-20T10:06:24.187Z,95205.16
2023-05-20T10:09:12.796Z,95210.38
2023-05-20T10:11:51.910Z,95212.13
2023-05-20T10:14:42.100Z,95202.72
2023-05-20T10:17:28.068Z,95198.34
2023-05-20T10:19:59.980Z,95196.19
2023-05-20T10:22:31.866Z,95186.22
2023-05-20T10:25:00.628Z,95188.72
2023-05-20T10:27:27.581Z,95184.38
2023-05-20T10:29:58.144Z,95183.31
2023-05-20T10:32:32.720Z,95185.03
2023-05-20T10:35:06.258Z,95191.34
2023-05-20T10:37:40.843Z,95171.13
2023-05-20T10:40:14.641Z,95175.66
2023-05-20T10:42:42.639Z,95174.28
2023-05-20T10:45:10.439Z,95161.78
2023-05-20T10:47:37.937Z,95159.72
2023-05-20T10:50:06.245Z,95147.47
2023-05-20T10:52:37.118Z,95140.34
2023-05-20T10:55:05.230Z,95146.31
2023-05-20T10:57:34.942Z,95151.34
2023-05-20T11:00:02.279Z,95135.25
2023-05-20T11:02:37.788Z,95134.59
2023-05-20T11:05:06.971Z,95130.78
2023-05-20T11:07:34.369Z,95148.81
2023-05-20T11:10:01.572Z,95135.06
2023-05-20T11:12:28.695Z,95127.75
2023-05-20T11:14:56.055Z,95125.16
2023-05-20T11:17:23.179Z,95123.88
2023-05-20T11:19:50.898Z,95130.00
2023-05-20T11:22:18.088Z,95121.13
2023-05-20T11:24:45.203Z,95116.72
2023-05-20T11:27:12.195Z,95122.44
2023-05-20T11:29:40.925Z,95109.97
2023-05-20T11:32:08.409Z,95101.47
2023-05-20T11:34:37.485Z,95096.53
2023-05-20T11:37:09.285Z,95094.47
2023-05-20T11:39:37.562Z,95096.22
2023-05-20T11:42:06.395Z,95084.53
2023-05-20T11:44:33.615Z,95077.47
2023-05-20T11:47:02.241Z,95084.72
2023-05-20T11:49:29.569Z,95084.22
2023-05-20T11:51:57.145Z,95086.31
2023-05-20T11:54:25.054Z,95086.41
2023-05-20T11:56:54.343Z,95079.78
2023-05-20T11:59:24.432Z,95071.84
2023-05-20T12:01:52.057Z,95081.19
2023-05-20T12:04:19.410Z,95083.72
2023-05-20T12:06:47.042Z,95074.56
2023-05-20T12:09:14.460Z,95068.47
2023-05-20T12:11:45.212Z,95064.16
2023-05-20T12:14:12.322Z,95057.59
2023-05-20T12:16:39.452Z,95057.63
2023-05-20T12:19:06.576Z,95063.38
2023-05-20T12:21:33.515Z,95076.31
2023-05-20T12:24:00.555Z,95068.97
2023-05-20T12:26:29.111Z,95064.09
2023-05-20T12:28:56.832Z,95072.09
2023-05-20T12:31:24.187Z,95081.84
2023-05-20T12:33:51.602Z,95076.28
2023-05-20T12:36:19.889Z,95090.91
2023-05-20T12:38:47.374Z,95094.22
2023-05-20T12:41:14.493Z,95111.34
2023-05-20T12:43:41.573Z,95106.22
2023-05-20T12:46:08.785Z,95108.34
2023-05-20T12:48:37.226Z,95122.03
2023-05-20T12:51:04.574Z,95129.13
2023-05-20T12:53:31.852Z,95109.88
2023-05-20T12:55:58.944Z,95111.78
2023-05-20T12:58:26.171Z,95115.31
2023-05-20T13:00:53.346Z,95117.06
2023-05-20T13:03:20.501Z,95110.06
2023-05-20T13:05:47.685Z,95101.44
2023-05-20T13:08:15.151Z,95101.94
2023-05-20T13:10:42.215Z,95105.28
2023-05-20T13:13:09.402Z,95085.53
2023-05-20T13:15:37.038Z,95082.72
2023-05-20T13:18:06.968Z,95085.47
2023-05-20T13:20:34.828Z,95072.69
2023-05-20T13:23:02.107Z,95065.47
2023-05-20T13:25:29.441Z,95060.31
2023-05-20T13:27:56.571Z,95064.38
2023-05-20T13:30:23.671Z,95057.38
2023-05-20T13:32:50.781Z,95055.31
2023-05-20T13:35:17.800Z,95062.19
2023-05-20T13:37:45.273Z,95060.72
2023-05-20T13:40:13.158Z,95066.09
2023-05-20T13:42:40.410Z,95055.53
2023-05-20T13:45:08.089Z,95058.06
2023-05-20T13:47:35.192Z,95073.19
2023-05-20T13:50:03.373Z,95077.66
2023-05-20T13:52:30.791Z,95057.19
2023-05-20T13:54:57.844Z,95057.81
2023-05-20T13:57:24.867Z,95054.38
2023-05-20T13:59:51.870Z,95052.22
2023-05-20T14:02:18.892Z,95043.25
2023-05-20T14:04:47.397Z,95037.00
2023-05-20T14:07:14.666Z,95033.66
2023-05-20T14:09:41.744Z,95029.13
2023-05-20T14:12:08.728Z,95019.16
2023-05-20T14:14:35.925Z,95022.66
2023-05-20T14:17:03.233Z,95015.88
2023-05-20T14:19:30.420Z,95024.31
2023-05-20T14:21:59.286Z,95017.19
2023-05-20T14:24:26.162Z,95022.47
2023-05-20T14:26:53.826Z,95024.53
2023-05-20T14:29:20.972Z,95016.94
2023-05-20T14:31:48.042Z,95020.38
2023-05-20T14:34:15.073Z,95025.59
2023-05-20T14:36:42.398Z,95017.03
2023-05-20T14:39:09.977Z,95021.50
2023-05-20T14:41:36.905Z,95022.53
2023-05-20T14:44:03.964Z,95016.09
2023-05-20T14:46:31.226Z,95015.50
2023-05-20T14:48:58.391Z,95016.25
2023-05-20T14:51:25.657Z,95019.66
2023-05-20T14:53:52.778Z,95023.06
2023-05-20T14:56:19.857Z,95024.31
2023-05-20T14:58:46.923Z,95018.06
2023-05-20T15:01:14.139Z,95014.38
2023-05-20T15:03:41.226Z,95010.28
2023-05-20T15:06:08.329Z,95007.09
2023-05-20T15:08:35.515Z,95012.50
2023-05-20T15:11:02.520Z,95021.47
2023-05-20T15:13:29.462Z,95024.25
2023-05-20T15:15:56.779Z,95018.84
2023-05-20T15:18:23.914Z,95024.75
2023-05-20T15:20:51.093Z,95007.81
2023-05-20T15:23:18.127Z,95003.22
2023-05-20T15:25:45.248Z,95016.81
2023-05-20T15:28:12.369Z,95007.53
2023-05-20T15:30:39.465Z,95015.63
2023-05-20T15:33:06.887Z,95008.03
2023-05-20T15:35:34.096Z,94992.78
2023-05-20T15:38:01.172Z,95001.09
2023-05-20T15:40:28.499Z,95013.38
2023-05-20T15:42:55.503Z,95002.94
2023-05-20T15:45:22.562Z,94998.41
2023-05-20T15:47:49.799Z,94993.56
2023-05-20T15:50:17.119Z,94996.88
2023-05-20T15:52:44.334Z,94990.66
2023-05-20T15:55:11.447Z,94995.50
2023-05-20T15:57:38.602Z,94991.41
2023-05-20T16:00:10.682Z,94991.13
2023-05-20T16:02:38.762Z,95000.28
2023-05-20T16:05:06.503Z,94995.81
2023-05-20T16:07:33.593Z,94995.81
2023-05-20T16:10:00.712Z,94979.34
2023-05-20T16:12:27.748Z,94994.97
2023-05-20T16:14:55.143Z,95003.41
2023-05-20T16:17:22.445Z,94999.34
2023-05-20T16:19:49.946Z,94998.19
2023-05-20T16:22:18.560Z,95005.41
2023-05-20T16:24:45.959Z,95000.84
2023-05-20T16:27:12.975Z,95003.63
2023-05-20T16:29:40.134Z,94998.50
2023-05-20T16:32:07.720Z,94993.59
2023-05-20T16:34:34.916Z,95005.69
2023-05-20T16:37:02.142Z,94995.41
2023-05-20T16:39:29.201Z,95004.31
2023-05-20T16:41:56.244Z,95001.56
2023-05-20T16:44:23.307Z,95007.88
2023-05-20T16:46:52.669Z,95007.66
2023-05-20T16:49:20.951Z,95008.56
2023-05-20T16:51:48.133Z,95009.94
2023-05-20T16:54:15.138Z,95016.00
2023-05-20T16:56:42.174Z,95010.28
2023-05-20T16:59:09.166Z,95009.16
2023-05-20T17:01:37.196Z,95010.03
